Time;durP1;ratioP1;P1;durP2;ratioP2;P2;SDS_P1;SDS_P2;PMS_P1;PMS_P2;Temp;Humidity;BMP_temperature;BMP_pressure;BME280_temperature;BME280_humidity;BME280_pressure;Samples;Min_cycle;Max_cycle;Signal;HPM_P1;HPM_P2
2021/12/19 00:00:55;;;;;;;42.50;19.83;;;4.00;81.40;;;2.88;69.56;95929.84;5052151;28;20247;-82
2021/12/19 00:11:11;;;;;;;37.13;18.25;;;4.00;81.70;;;2.98;69.80;95903.19;5034722;28;20247;-81
2021/12/19 00:13:40;;;;;;;44.85;19.45;;;4.00;81.60;;;3.01;69.70;95914.16;5051556;28;20196;-81
2021/12/19 00:16:08;;;;;;;28.33;16.60;;;4.00;81.70;;;3.06;69.81;95921.56;5034798;28;20265;-81
2021/12/19 00:18:36;;;;;;;33.97;17.60;;;4.00;81.70;;;3.06;69.91;95910.41;5034958;28;20196;-81
2021/12/19 00:21:04;;;;;;;31.63;16.85;;;4.10;81.80;;;3.09;69.87;95895.44;5034904;28;20235;-80
2021/12/19 00:23:39;;;;;;;39.53;15.63;;;4.10;81.90;;;3.13;69.90;95889.03;5051470;28;20719;-81
2021/12/19 00:26:08;;;;;;;29.75;15.07;;;4.20;81.90;;;3.17;69.60;95894.81;5051868;28;20224;-79
2021/12/19 00:28:35;;;;;;;28.23;14.52;;;4.20;81.90;;;3.19;69.89;95893.75;5034795;28;20746;-80
2021/12/19 00:31:04;;;;;;;23.38;13.80;;;4.20;82.00;;;3.24;69.72;95890.78;5030137;28;20225;-80
2021/12/19 00:33:32;;;;;;;26.38;15.25;;;4.20;81.90;;;3.27;69.82;95875.00;5031390;28;20204;-80
2021/12/19 00:35:59;;;;;;;29.10;16.42;;;4.30;82.10;;;3.29;69.82;95883.47;5029280;28;20222;-80
2021/12/19 00:38:26;;;;;;;31.10;16.60;;;4.20;81.90;;;3.32;69.82;95890.16;5034670;28;20250;-80
2021/12/19 00:40:54;;;;;;;30.33;17.38;;;4.30;82.10;;;3.34;69.58;95883.94;5034606;28;20235;-81
2021/12/19 00:43:25;;;;;;;33.88;17.58;;;4.30;82.00;;;3.35;69.29;95882.16;5067577;28;20654;-80
2021/12/19 00:45:53;;;;;;;31.08;17.30;;;4.30;82.40;;;3.34;69.82;95883.09;5050784;28;20219;-81
2021/12/19 00:48:20;;;;;;;34.85;18.95;;;4.30;82.00;;;3.32;69.42;95872.84;5034794;28;20254;-81
2021/12/19 00:50:48;;;;;;;40.38;18.00;;;4.30;82.00;;;3.34;69.68;95878.75;5034225;28;20231;-81
2021/12/19 00:53:16;;;;;;;40.28;18.75;;;4.40;82.00;;;3.34;70.14;95867.53;5050512;28;20199;-80
2021/12/19 00:55:43;;;;;;;34.53;17.42;;;4.40;82.00;;;3.35;69.77;95858.81;5018649;28;20223;-81
2021/12/19 00:58:10;;;;;;;31.35;18.23;;;4.40;82.00;;;3.32;69.76;95872.00;5033840;28;20234;-81
2021/12/19 01:00:38;;;;;;;31.92;17.90;;;4.40;82.10;;;3.32;70.16;95872.84;5067359;28;20237;-80
2021/12/19 01:03:06;;;;;;;24.17;15.82;;;4.40;82.00;;;3.34;70.04;95876.16;5034465;28;20586;-81
2021/12/19 01:05:38;;;;;;;26.02;16.88;;;4.40;82.10;;;3.34;69.90;95865.78;5050526;28;20686;-80
2021/12/19 01:08:06;;;;;;;24.38;14.90;;;4.30;82.10;;;3.37;69.69;95864.72;5017845;28;20214;-80
2021/12/19 01:10:36;;;;;;;29.77;16.08;;;4.40;82.10;;;3.38;69.99;95876.72;5033482;28;20215;-80
2021/12/19 01:13:03;;;;;;;27.58;16.40;;;4.40;82.20;;;3.41;70.11;95875.66;5034472;28;20204;-81
2021/12/19 01:15:31;;;;;;;24.73;15.48;;;4.40;82.10;;;3.43;69.84;95881.53;5033620;28;21300;-80
2021/12/19 01:18:00;;;;;;;24.35;16.17;;;4.40;82.10;;;3.43;69.60;95878.94;5067519;28;20200;-80
2021/12/19 01:20:31;;;;;;;24.52;14.98;;;4.40;82.20;;;3.42;70.05;95882.47;5067423;28;20299;-81
2021/12/19 01:23:00;;;;;;;21.85;14.45;;;4.50;82.30;;;3.44;69.93;95873.66;5067458;28;20227;-81
2021/12/19 01:25:27;;;;;;;22.73;13.88;;;4.40;82.20;;;3.45;69.99;95877.06;5065135;28;20297;-81
2021/12/19 01:27:54;;;;;;;21.30;12.82;;;4.40;82.30;;;3.46;69.87;95861.34;5017386;28;20188;-80
2021/12/19 01:30:22;;;;;;;21.95;12.95;;;4.40;82.30;;;3.47;70.17;95873.38;5016724;28;20228;-80
2021/12/19 01:32:49;;;;;;;21.02;13.00;;;4.50;82.40;;;3.48;70.08;95861.25;5033873;28;20224;-80
2021/12/19 01:35:20;;;;;;;18.35;12.48;;;4.50;82.30;;;3.50;70.01;95859.34;5030443;28;20209;-81
2021/12/19 01:37:47;;;;;;;19.80;11.40;;;4.50;82.30;;;3.53;69.71;95867.69;5042123;28;20637;-80
2021/12/19 01:40:17;;;;;;;15.10;10.55;;;4.50;83.00;;;3.55;69.72;95848.59;5014167;28;20217;-80
2021/12/19 01:42:51;;;;;;;16.65;10.48;;;4.50;82.30;;;3.55;70.13;95846.00;5030938;28;20213;-80
2021/12/19 01:45:41;;;;;;;16.77;10.48;;;4.50;82.30;;;3.53;70.08;95833.97;5078688;28;20678;-81
2021/12/19 01:48:12;;;;;;;17.40;10.93;;;4.50;82.40;;;3.55;70.21;95831.25;5034103;28;20318;-80
2021/12/19 01:50:41;;;;;;;19.33;12.52;;;4.50;82.30;;;3.52;70.11;95810.78;5033960;28;20223;-81
2021/12/19 01:53:11;;;;;;;16.67;11.02;;;4.60;82.40;;;3.52;69.79;95819.38;5034101;28;20684;-80
2021/12/19 01:55:41;;;;;;;20.05;12.07;;;4.60;82.40;;;3.47;70.15;95826.69;5033444;28;20697;-80
2021/12/19 01:58:09;;;;;;;18.35;11.32;;;4.50;82.30;;;3.53;70.12;95826.19;5019517;28;20204;-80
2021/12/19 02:00:55;;;;;;;16.83;10.90;;;4.60;82.30;;;3.51;69.71;95817.72;5035018;28;20217;-79
2021/12/19 02:03:24;;;;;;;16.95;10.73;;;4.50;82.20;;;3.50;70.05;95815.25;5037309;28;20198;-80
2021/12/19 02:05:52;;;;;;;16.65;10.80;;;4.60;82.30;;;3.53;70.18;95815.00;5036344;28;20212;-82
2021/12/19 02:08:20;;;;;;;15.48;9.88;;;4.60;82.30;;;3.52;69.91;95800.41;5036971;28;20295;-81
2021/12/19 02:10:49;;;;;;;16.80;10.82;;;4.60;82.30;;;3.52;70.09;95818.56;5036652;28;20215;-81
2021/12/19 02:13:16;;;;;;;15.40;10.02;;;4.60;82.30;;;3.46;70.27;95800.91;5021157;28;20200;-81
2021/12/19 02:15:46;;;;;;;14.07;9.20;;;4.60;82.40;;;3.54;70.25;95824.44;5052820;28;20215;-80
2021/12/19 02:18:18;;;;;;;14.90;9.38;;;4.60;82.40;;;3.53;70.37;95812.41;5037290;28;20298;-80
2021/12/19 02:20:52;;;;;;;14.18;8.95;;;4.60;82.40;;;3.52;70.02;95814.19;5036921;28;20323;-80
2021/12/19 02:23:22;;;;;;;14.95;9.82;;;4.60;82.40;;;3.51;70.45;95815.13;5037088;28;20237;-80
2021/12/19 02:25:51;;;;;;;14.98;9.02;;;4.60;82.50;;;3.55;70.23;95807.09;5039842;28;20224;-80
2021/12/19 02:28:19;;;;;;;14.25;9.38;;;4.60;82.50;;;3.56;70.07;95806.16;5051163;28;20231;-81
2021/12/19 02:30:47;;;;;;;14.35;8.68;;;4.60;82.50;;;3.57;70.20;95813.81;5020394;28;20308;-80
2021/12/19 02:33:21;;;;;;;14.13;9.80;;;4.60;82.50;;;3.52;70.33;95795.22;5036733;28;20681;-79
2021/12/19 02:35:58;;;;;;;16.58;10.02;;;4.60;82.60;;;3.53;70.44;95791.66;5049780;28;20220;-80
2021/12/19 02:49:23;;;;;;;14.95;10.00;;;4.60;82.50;;;3.50;70.32;95764.22;5053053;28;20242;-79
2021/12/19 02:51:52;;;;;;;16.10;10.57;;;4.60;82.50;;;3.45;70.31;95755.97;5068511;28;20227;-79
2021/12/19 02:54:22;;;;;;;16.50;10.48;;;4.60;82.50;;;3.46;70.50;95747.25;5030810;28;20230;-80
2021/12/19 02:56:50;;;;;;;15.30;10.13;;;4.60;82.50;;;3.47;70.53;95750.69;5039281;28;20291;-79
2021/12/19 02:59:18;;;;;;;12.77;8.70;;;4.50;82.50;;;3.45;70.54;95729.22;5024290;28;20682;-79
2021/12/19 03:01:46;;;;;;;14.65;9.30;;;4.50;82.50;;;3.44;70.44;95738.78;5013747;28;20721;-80
2021/12/19 03:04:14;;;;;;;14.68;10.40;;;4.50;82.60;;;3.47;70.43;95722.97;5054798;28;20703;-80
2021/12/19 03:06:46;;;;;;;13.65;9.18;;;4.60;82.70;;;3.47;70.46;95709.19;5033451;28;20200;-79
2021/12/19 03:09:28;;;;;;;11.13;8.25;;;4.50;82.60;;;3.48;70.39;95718.63;5066041;28;20212;-81
2021/12/19 03:12:26;;;;;;;12.30;8.57;;;4.50;82.70;;;3.44;70.69;95704.25;5035537;28;20223;-81
2021/12/19 03:17:58;;;;;;;13.02;7.97;;;4.50;82.80;;;3.46;71.15;95715.31;5051954;28;20180;-80
2021/12/19 03:20:33;;;;;;;12.48;8.35;;;4.50;82.80;;;3.42;71.02;95686.22;5036845;28;20686;-80
2021/12/19 03:23:01;;;;;;;11.68;8.10;;;4.50;83.00;;;3.48;71.14;95695.28;5016745;28;20219;-81
2021/12/19 03:25:30;;;;;;;12.93;8.70;;;4.50;83.10;;;3.49;70.99;95691.69;5033529;28;20316;-79
2021/12/19 03:28:00;;;;;;;11.20;8.07;;;4.50;83.10;;;3.46;70.77;95677.22;5050452;28;20239;-80
2021/12/19 03:30:28;;;;;;;10.82;7.80;;;4.50;83.10;;;3.51;71.11;95698.41;5033593;28;20224;-79
2021/12/19 03:32:56;;;;;;;11.88;8.10;;;4.50;83.20;;;3.52;71.00;95681.09;5033154;28;20220;-80
2021/12/19 03:35:24;;;;;;;11.15;7.60;;;4.60;83.20;;;3.53;71.27;95682.72;5051267;28;20209;-80
2021/12/19 03:37:52;;;;;;;11.25;7.88;;;4.60;83.30;;;3.54;70.99;95686.97;5035504;28;20702;-80
2021/12/19 03:40:34;;;;;;;11.13;7.55;;;4.60;83.20;;;3.54;71.02;95689.56;5035441;28;20234;-80
2021/12/19 03:43:11;;;;;;;11.63;7.70;;;4.60;83.40;;;3.52;71.13;95670.72;5020626;28;20257;-80
2021/12/19 03:45:39;;;;;;;11.02;8.15;;;4.60;83.40;;;3.52;71.33;95658.56;5051923;28;20239;-79
2021/12/19 03:48:11;;;;;;;11.48;7.60;;;4.50;83.30;;;3.52;71.29;95645.59;5018989;28;20673;-80
2021/12/19 03:50:47;;;;;;;10.40;7.32;;;4.50;83.40;;;3.55;71.40;95648.88;5019603;28;20220;-79
2021/12/19 03:53:17;;;;;;;10.10;7.15;;;4.60;84.30;;;3.52;71.57;95663.75;5018157;28;20724;-79
2021/12/19 03:55:45;;;;;;;11.13;7.63;;;4.60;83.50;;;3.57;71.27;95659.94;5035045;28;20212;-80
2021/12/19 03:58:12;;;;;;;11.90;7.53;;;4.60;83.60;;;3.55;71.24;95641.09;5051664;28;20200;-79
2021/12/19 04:00:42;;;;;;;9.05;6.82;;;4.60;83.50;;;3.56;71.15;95653.13;5051637;28;20222;-79
2021/12/19 04:03:17;;;;;;;10.60;7.10;;;4.60;83.60;;;3.57;71.70;95647.00;5019012;28;20253;-79
2021/12/19 04:05:47;;;;;;;9.45;6.18;;;4.50;83.50;;;3.58;70.96;95643.44;5036074;28;20223;-78
2021/12/19 04:08:15;;;;;;;10.00;6.80;;;4.60;83.60;;;3.59;71.13;95642.47;5051998;28;20672;-79
2021/12/19 04:10:43;;;;;;;9.57;6.97;;;4.60;83.60;;;3.61;71.10;95641.38;5034923;28;20244;-79
2021/12/19 04:13:10;;;;;;;10.38;7.05;;;4.60;83.60;;;3.62;71.10;95632.66;5034115;28;20212;-79
2021/12/19 04:15:37;;;;;;;8.32;6.47;;;4.60;83.60;;;3.61;71.60;95632.78;5018345;28;20319;-79
2021/12/19 04:18:05;;;;;;;10.75;7.05;;;4.60;83.50;;;3.61;71.22;95627.59;5018188;28;20250;-79
2021/12/19 04:20:32;;;;;;;10.32;6.93;;;4.60;83.50;;;3.61;71.30;95617.22;5033969;28;20585;-79
2021/12/19 04:23:00;;;;;;;11.50;6.80;;;4.60;83.50;;;3.60;71.29;95620.78;5034499;28;20242;-79
2021/12/19 04:25:27;;;;;;;10.95;6.88;;;4.60;83.50;;;3.60;71.37;95613.81;5034141;28;20228;-79
2021/12/19 04:27:54;;;;;;;9.93;6.72;;;4.60;83.50;;;3.57;71.30;95616.66;5051021;28;20231;-79
2021/12/19 04:30:25;;;;;;;8.95;7.03;;;4.60;83.50;;;3.60;71.34;95621.59;5018498;28;20278;-79
2021/12/19 04:35:34;;;;;;;10.57;6.72;;;4.60;83.40;;;3.60;71.14;95624.19;5051359;28;20235;-79
2021/12/19 04:52:00;;;;;;;8.98;6.35;;;4.60;83.70;;;3.52;71.05;95592.91;5051027;28;20188;-79
2021/12/19 05:00:17;;;;;;;7.68;5.68;;;4.60;83.70;;;3.57;71.63;95569.16;5006183;28;20625;-79
2021/12/19 05:02:52;;;;;;;8.90;6.28;;;4.60;83.70;;;3.57;71.45;95569.16;5018736;28;20188;-79
2021/12/19 05:05:42;;;;;;;7.53;6.13;;;4.60;83.80;;;3.55;71.79;95569.28;5050581;28;20215;-79
2021/12/19 05:16:27;;;;;;;8.93;6.47;;;4.60;83.90;;;3.48;71.82;95542.25;5050808;28;20200;-79
2021/12/19 05:19:02;;;;;;;8.20;6.10;;;4.60;83.90;;;3.55;72.00;95548.53;5034238;28;20204;-79
2021/12/19 05:21:29;;;;;;;9.65;6.25;;;4.60;83.90;;;3.51;71.72;95542.78;5035552;28;20192;-79
2021/12/19 05:26:26;;;;;;;8.20;6.20;;;4.60;84.00;;;3.54;72.10;95528.75;5034376;28;20196;-79
2021/12/19 05:28:53;;;;;;;8.07;6.13;;;4.60;84.00;;;3.48;72.12;95529.28;5050611;28;20195;-79
2021/12/19 05:31:20;;;;;;;7.55;5.70;;;4.60;84.10;;;3.55;71.68;95560.69;5034948;28;20646;-79
2021/12/19 05:33:48;;;;;;;7.30;5.68;;;4.60;84.10;;;3.52;72.04;95535.84;5053444;28;20302;-79
2021/12/19 05:46:43;;;;;;;7.70;5.38;;;4.60;84.00;;;3.50;71.76;95525.63;5055821;28;20200;-79
2021/12/19 05:49:10;;;;;;;7.30;5.60;;;4.60;83.90;;;3.49;71.84;95526.56;5037615;28;20219;-79
2021/12/19 05:51:38;;;;;;;7.82;5.75;;;4.60;84.00;;;3.50;71.84;95540.34;5037353;28;20658;-80
2021/12/19 05:54:06;;;;;;;6.85;5.38;;;4.60;84.00;;;3.51;72.11;95555.75;5036936;28;20201;-79
2021/12/19 05:56:42;;;;;;;7.18;5.43;;;4.50;83.90;;;3.50;71.60;95525.63;5054015;28;20202;-80
2021/12/19 05:59:11;;;;;;;7.43;5.53;;;4.50;83.90;;;3.50;71.71;95525.63;5020989;28;20582;-79
2021/12/19 06:01:39;;;;;;;7.10;5.78;;;4.50;83.90;;;3.52;72.09;95523.69;5037045;28;20722;-79
2021/12/19 06:04:06;;;;;;;7.75;5.43;;;4.50;83.90;;;3.53;71.70;95514.97;5036821;28;20541;-79
2021/12/19 06:06:34;;;;;;;8.20;6.00;;;4.50;83.80;;;3.53;71.35;95516.75;5037186;28;20207;-79
2021/12/19 06:09:03;;;;;;;7.05;5.47;;;4.60;83.80;;;3.52;71.55;95515.09;5036794;28;20248;-79
2021/12/19 06:11:30;;;;;;;8.45;6.32;;;4.60;83.80;;;3.51;71.48;95516.03;5037242;28;20218;-79
2021/12/19 06:13:57;;;;;;;8.07;5.97;;;4.60;83.70;;;3.50;71.13;95517.84;5033187;28;20216;-79
2021/12/19 06:16:25;;;;;;;7.00;5.47;;;4.60;83.60;;;3.49;71.15;95512.75;5032160;28;20189;-79
2021/12/19 06:18:52;;;;;;;7.43;5.57;;;4.60;83.70;;;3.50;71.39;95509.22;5031487;28;20271;-79
2021/12/19 06:21:20;;;;;;;8.43;5.60;;;4.60;83.70;;;3.50;71.58;95506.63;5031884;28;20199;-79
2021/12/19 06:23:48;;;;;;;7.82;5.63;;;4.60;83.60;;;3.48;71.24;95501.56;5068013;28;20762;-79
2021/12/19 06:26:15;;;;;;;8.27;5.50;;;4.60;83.50;;;3.48;71.28;95511.94;5035073;28;20204;-79
2021/12/19 06:28:42;;;;;;;6.93;5.15;;;4.60;83.60;;;3.43;71.65;95511.53;5030330;28;20215;-78
2021/12/19 06:31:10;;;;;;;6.72;4.97;;;4.60;83.60;;;3.49;71.24;95520.53;5018505;28;20222;-79
2021/12/19 06:33:37;;;;;;;7.82;5.55;;;4.60;83.60;;;3.49;71.37;95520.53;5033985;28;20631;-79
2021/12/19 06:36:05;;;;;;;7.65;5.85;;;4.50;83.50;;;3.45;71.19;95495.84;5051915;28;20577;-79
2021/12/19 06:38:33;;;;;;;7.75;5.82;;;4.50;83.50;;;3.46;71.39;95492.28;5034576;28;20199;-79
2021/12/19 06:41:00;;;;;;;6.63;5.15;;;4.50;83.60;;;3.43;71.32;95483.00;5050968;28;20299;-79
2021/12/19 06:43:30;;;;;;;5.78;4.85;;;4.50;83.50;;;3.44;71.25;95481.22;5050469;28;20840;-80
2021/12/19 06:45:57;;;;;;;6.05;4.95;;;4.50;83.50;;;3.43;70.82;95480.41;5018637;28;20303;-79
2021/12/19 06:48:25;;;;;;;5.68;4.57;;;4.50;83.50;;;3.46;71.06;95471.53;5027524;28;20204;-80
2021/12/19 06:50:53;;;;;;;5.30;4.80;;;4.50;83.40;;;3.44;71.00;95478.63;5049481;28;20215;-79
2021/12/19 06:53:20;;;;;;;6.97;5.20;;;4.50;83.40;;;3.41;70.89;95491.88;5050093;28;20215;-78
2021/12/19 06:55:47;;;;;;;6.38;4.75;;;4.50;83.30;;;3.44;70.74;95458.72;5034503;28;20708;-79
2021/12/19 06:58:14;;;;;;;6.75;5.25;;;4.50;83.30;;;3.43;70.96;95464.84;5034037;28;20223;-79
2021/12/19 07:00:42;;;;;;;5.72;4.65;;;4.50;83.30;;;3.40;70.74;95469.50;5034124;28;20744;-80
2021/12/19 07:03:11;;;;;;;7.15;5.03;;;4.50;83.20;;;3.37;70.83;95457.63;5050454;28;20290;-80
2021/12/19 07:05:38;;;;;;;7.13;5.10;;;4.50;83.30;;;3.39;70.93;95445.31;5034297;28;20216;-80
2021/12/19 07:08:06;;;;;;;8.00;5.30;;;4.50;83.20;;;3.40;70.84;95449.56;5034362;28;20204;-78
2021/12/19 07:10:33;;;;;;;6.95;4.88;;;4.50;83.20;;;3.37;70.46;95457.63;5034026;28;20300;-80
2021/12/19 07:13:00;;;;;;;6.65;4.90;;;4.40;83.00;;;3.35;70.69;95431.78;5033169;28;20670;-82
2021/12/19 07:15:28;;;;;;;6.22;4.90;;;4.50;83.00;;;3.32;70.77;95445.03;5050715;28;20577;-82
2021/12/19 07:18:01;;;;;;;7.32;5.07;;;4.40;82.80;;;3.22;70.24;95422.66;5032122;28;20196;-79
2021/12/19 07:20:30;;;;;;;6.75;4.95;;;4.40;82.60;;;3.19;70.17;95434.91;5032524;28;20235;-78
2021/12/19 07:22:57;;;;;;;6.90;4.95;;;4.40;82.50;;;3.04;70.47;95436.25;5049478;28;20196;-80
2021/12/19 07:25:25;;;;;;;5.90;4.45;;;4.30;82.40;;;3.06;70.35;95441.28;5048827;28;20256;-79
2021/12/19 07:27:52;;;;;;;6.85;4.65;;;4.30;82.50;;;2.98;70.34;95431.56;5035872;28;20760;-79
2021/12/19 07:30:19;;;;;;;7.22;4.68;;;4.20;82.50;;;2.96;70.48;95460.22;5035797;28;20277;-79
2021/12/19 07:32:47;;;;;;;7.38;5.03;;;4.10;82.50;;;2.86;70.35;95434.28;5031740;28;20766;-79
2021/12/19 07:35:22;;;;;;;6.40;4.30;;;4.10;82.50;;;2.88;70.10;95431.53;5036328;28;20223;-79
2021/12/19 07:37:52;;;;;;;7.40;4.72;;;4.10;82.50;;;2.82;70.90;95421.69;5044896;28;20197;-79
2021/12/19 07:40:20;;;;;;;5.28;4.00;;;4.00;82.50;;;2.78;70.67;95413.38;5059031;28;20220;-79
2021/12/19 07:42:48;;;;;;;4.32;3.67;;;4.00;82.70;;;2.78;70.75;95422.94;5043017;28;20713;-79
2021/12/19 07:45:16;;;;;;;5.90;3.92;;;3.90;82.70;;;2.80;70.61;95405.50;5024803;28;20224;-80
2021/12/19 07:47:44;;;;;;;6.22;3.95;;;3.90;82.80;;;2.79;71.02;95415.03;5042543;28;20196;-79
2021/12/19 07:50:14;;;;;;;5.93;4.13;;;3.90;82.90;;;2.80;70.79;95397.72;5054255;28;20249;-79
2021/12/19 07:52:41;;;;;;;5.93;3.88;;;3.90;82.90;;;2.75;71.07;95392.09;5027925;28;20713;-79
2021/12/19 07:55:09;;;;;;;5.28;3.95;;;3.90;82.90;;;2.82;71.02;95403.56;5015191;28;20633;-79
2021/12/19 07:57:36;;;;;;;4.82;3.80;;;3.90;83.00;;;2.74;70.54;95401.66;5032009;28;20597;-79
2021/12/19 08:00:07;;;;;;;5.03;3.92;;;3.90;83.10;;;2.86;70.90;95376.47;5036807;28;20220;-78
2021/12/19 08:02:42;;;;;;;4.72;3.30;;;3.90;83.10;;;2.86;70.66;95371.28;5018913;28;20211;-79
2021/12/19 08:05:10;;;;;;;4.72;3.42;;;3.90;83.20;;;2.88;70.96;95377.13;5015327;28;20212;-79
2021/12/19 08:07:39;;;;;;;5.45;3.88;;;3.80;83.20;;;2.91;70.73;95357.94;5032029;28;20242;-79
2021/12/19 08:12:38;;;;;;;3.85;3.28;;;3.90;83.20;;;2.94;70.64;95366.28;5029081;28;20222;-79
2021/12/19 08:15:07;;;;;;;5.45;3.33;;;3.90;83.30;;;2.98;70.91;95356.44;5047002;28;20215;-79
2021/12/19 08:17:35;;;;;;;5.45;3.40;;;3.90;83.40;;;3.01;70.82;95358.75;5029700;28;20216;-79
2021/12/19 08:20:06;;;;;;;4.93;3.88;;;4.00;83.40;;;3.08;70.60;95366.84;5032980;28;20218;-80
2021/12/19 08:22:34;;;;;;;4.38;3.05;;;4.00;83.40;;;3.14;70.84;95374.88;5034040;28;20461;-79
2021/12/19 08:25:04;;;;;;;4.82;3.42;;;4.00;83.40;;;3.20;70.37;95381.31;5049883;28;20302;-78
2021/12/19 08:27:33;;;;;;;4.35;2.97;;;4.10;83.30;;;3.25;70.25;95376.53;5027932;28;20275;-79
2021/12/19 08:30:07;;;;;;;5.22;3.10;;;4.10;83.30;;;3.31;70.56;95370.81;5029184;28;20208;-80
2021/12/19 08:32:35;;;;;;;4.15;3.00;;;4.20;83.30;;;3.36;70.30;95378.19;5041903;28;20185;-80
2021/12/19 08:35:05;;;;;;;3.08;2.55;;;4.20;83.20;;;3.40;70.64;95369.16;5016563;28;20216;-80
2021/12/19 08:37:32;;;;;;;5.03;3.42;;;4.20;83.20;;;3.42;70.21;95362.09;5031398;28;20224;-79
2021/12/19 08:39:59;;;;;;;3.95;2.97;;;4.30;84.10;;;3.43;70.37;95363.72;5044910;28;20262;-79
2021/12/19 08:42:28;;;;;;;4.72;2.78;;;4.30;83.30;;;3.46;70.10;95352.25;5060847;28;20291;-79
2021/12/19 08:44:55;;;;;;;3.22;2.60;;;4.40;83.30;;;3.56;70.19;95352.25;5024246;28;20220;-79
2021/12/19 08:47:22;;;;;;;3.08;2.63;;;4.40;83.30;;;3.61;69.76;95343.09;5025864;28;20224;-79
2021/12/19 08:49:49;;;;;;;3.95;2.85;;;4.40;83.20;;;3.63;69.73;95369.72;5044717;28;20698;-79
2021/12/19 08:52:17;;;;;;;2.83;2.53;;;4.50;83.10;;;3.70;69.67;95359.63;5032471;28;20207;-79
2021/12/19 08:54:44;;;;;;;3.00;2.60;;;4.50;83.10;;;3.72;70.03;95364.66;5027013;28;20298;-78
2021/12/19 08:57:11;;;;;;;3.58;2.75;;;4.60;83.00;;;3.77;69.44;95370.25;5046647;28;20227;-79
2021/12/19 08:59:38;;;;;;;3.20;2.60;;;4.60;83.00;;;3.81;69.65;95369.84;5032639;28;20220;-80
2021/12/19 09:02:05;;;;;;;3.67;2.85;;;4.60;82.90;;;3.82;69.64;95376.66;5045713;28;20201;-81
2021/12/19 09:04:33;;;;;;;3.17;2.55;;;4.70;83.00;;;3.85;69.76;95373.78;5030254;28;20244;-81
2021/12/19 09:07:00;;;;;;;2.78;2.33;;;4.70;82.80;;;3.89;69.71;95376.91;5016582;28;20197;-81
2021/12/19 09:09:28;;;;;;;4.38;3.00;;;4.70;82.90;;;3.92;69.83;95378.41;5051691;28;20256;-82
2021/12/19 09:11:56;;;;;;;3.90;3.10;;;4.80;82.90;;;3.99;69.17;95379.50;5025116;28;20188;-81
2021/12/19 09:14:23;;;;;;;4.90;3.20;;;4.80;82.80;;;4.00;69.33;95383.75;5037008;28;20297;-80
2021/12/19 09:16:50;;;;;;;3.60;3.15;;;4.80;82.50;;;4.02;69.37;95374.03;5021074;28;20661;-81
2021/12/19 09:19:18;;;;;;;3.70;2.88;;;4.80;82.60;;;4.07;69.36;95377.03;5021391;28;20711;-82
2021/12/19 09:21:46;;;;;;;3.97;2.90;;;4.90;82.60;;;4.11;69.24;95377.56;5038417;28;20258;-82
2021/12/19 09:24:13;;;;;;;3.50;2.50;;;4.90;82.70;;;4.16;69.38;95377.97;5020518;28;20212;-80
2021/12/19 09:26:40;;;;;;;3.88;3.13;;;4.90;82.70;;;4.21;69.12;95369.75;5037465;28;20207;-81
2021/12/19 09:29:07;;;;;;;3.47;2.67;;;5.00;82.70;;;4.29;68.72;95375.06;5038249;28;20239;-81
2021/12/19 09:31:34;;;;;;;2.95;2.50;;;5.00;82.60;;;4.34;68.84;95375.47;5038019;28;20564;-81
2021/12/19 09:34:03;;;;;;;4.68;2.88;;;5.10;82.70;;;4.42;68.97;95378.19;5054531;28;20226;-80
2021/12/19 09:36:30;;;;;;;3.35;2.50;;;5.10;82.80;;;4.48;68.96;95384.59;5053718;28;20192;-81
2021/12/19 09:38:58;;;;;;;2.20;2.00;;;5.20;82.70;;;4.55;nan;95379.63;5037822;28;20299;-81
2021/12/19 09:41:30;;;;;;;3.30;2.40;;;5.20;82.70;;;4.63;68.48;95367.56;5038179;28;20243;-82
2021/12/19 09:44:02;;;;;;;4.40;2.75;;;5.30;82.70;;;4.68;68.83;95356.75;5038782;28;20219;-82
2021/12/19 09:46:36;;;;;;;2.90;2.10;;;5.40;82.70;;;4.79;68.65;95350.53;5053656;28;20274;-81
2021/12/19 09:49:14;;;;;;;3.00;2.10;;;5.40;82.50;;;4.80;68.53;95341.78;5054968;28;20253;-82
2021/12/19 09:51:42;;;;;;;3.78;2.90;;;5.50;82.40;;;4.90;68.27;95336.53;5019684;28;20199;-82
2021/12/19 09:54:10;;;;;;;2.95;2.28;;;5.50;82.50;;;4.87;67.71;95318.59;5021377;28;20239;-82
2021/12/19 09:56:39;;;;;;;3.65;2.42;;;5.60;82.30;;;4.98;67.41;95331.41;5037891;28;20380;-82
2021/12/19 09:59:11;;;;;;;3.35;2.58;;;5.60;82.10;;;5.01;67.53;95331.13;5038014;28;20192;-82
2021/12/19 10:01:39;;;;;;;4.43;2.63;;;5.70;82.00;;;5.04;66.76;95337.78;5036671;28;20184;-82
2021/12/19 10:04:39;;;;;;;2.72;2.13;;;5.70;81.80;;;5.10;66.65;95325.03;5038010;28;20292;-82
2021/12/19 10:07:12;;;;;;;3.42;2.30;;;5.80;81.30;;;5.17;66.50;95322.66;5035796;28;20662;-81
2021/12/19 10:10:01;;;;;;;3.50;2.50;;;5.80;82.10;;;5.23;67.01;95311.66;5035776;28;20308;-82
2021/12/19 10:15:20;;;;;;;3.63;2.53;;;5.90;81.40;;;5.38;66.16;95301.56;5035559;28;20708;-81
2021/12/19 10:18:03;;;;;;;3.42;2.60;;;6.00;81.40;;;5.39;64.69;95315.38;5016626;28;20201;-84
2021/12/19 10:20:46;;;;;;;3.17;2.38;;;6.10;80.90;;;5.45;64.74;95299.97;5034081;28;20621;-82
2021/12/19 10:23:24;;;;;;;3.00;2.25;;;6.10;80.40;;;5.50;65.16;95303.94;5029680;28;20200;-81
2021/12/19 10:26:00;;;;;;;3.00;2.20;;;6.20;80.50;;;5.55;65.00;95291.28;5020498;28;20255;-81
2021/12/19 10:28:28;;;;;;;3.45;2.50;;;6.20;80.30;;;5.54;64.08;95279.22;5052635;28;20258;-81
2021/12/19 10:31:00;;;;;;;3.50;2.35;;;6.30;80.10;;;5.63;64.51;95282.69;5047476;28;20224;-83
2021/12/19 10:33:33;;;;;;;3.42;2.50;;;6.30;80.00;;;5.64;63.02;95282.56;5035177;28;20677;-82
2021/12/19 10:36:04;;;;;;;3.17;2.40;;;6.30;79.40;;;5.66;62.91;95275.41;5034466;28;20245;-82
2021/12/19 10:38:36;;;;;;;3.08;2.58;;;6.40;79.20;;;5.71;63.80;95290.56;5034715;28;20196;-81
2021/12/19 10:41:15;;;;;;;4.05;2.92;;;6.40;79.60;;;5.70;62.80;95278.53;5035749;28;20310;-81
2021/12/19 10:44:10;;;;;;;3.33;2.45;;;6.40;79.10;;;5.70;62.53;95270.72;5052624;28;20188;-79
2021/12/19 10:46:42;;;;;;;3.50;2.55;;;6.40;79.00;;;5.72;62.90;95267.00;5038382;28;20662;-83
2021/12/19 10:49:32;;;;;;;3.28;2.58;;;6.50;78.90;;;5.79;63.58;95280.22;5052406;28;20590;-82
2021/12/19 10:52:01;;;;;;;3.20;2.38;;;6.50;79.90;;;5.79;62.13;95274.22;5036489;28;20226;-83
2021/12/19 10:54:29;;;;;;;3.50;2.40;;;6.50;78.90;;;5.85;62.29;95265.78;5053400;28;20298;-83
2021/12/19 10:57:12;;;;;;;3.00;2.30;;;6.50;78.70;;;5.87;61.62;95272.47;5036442;28;20222;-82
2021/12/19 10:59:43;;;;;;;3.03;2.33;;;6.60;78.30;;;5.97;62.52;95264.56;5036063;28;20266;-79
2021/12/19 11:02:10;;;;;;;3.13;2.50;;;6.60;78.70;;;6.03;62.94;95253.56;5036374;28;20622;-81
2021/12/19 11:04:38;;;;;;;2.65;2.05;;;6.60;78.80;;;6.13;62.62;95250.00;5032632;28;20216;-81
2021/12/19 11:07:05;;;;;;;2.20;2.00;;;6.70;79.00;;;6.22;62.45;95251.69;5049489;28;20232;-82
2021/12/19 11:09:38;;;;;;;3.15;2.42;;;6.80;78.80;;;6.30;62.32;95250.88;5077028;28;20248;-83
2021/12/19 11:12:10;;;;;;;4.57;2.75;;;6.80;78.50;;;6.38;61.81;95256.97;5032899;28;20302;-84
2021/12/19 11:14:43;;;;;;;2.75;2.20;;;6.90;78.80;;;6.50;62.46;95260.09;5016697;28;20702;-82
2021/12/19 11:17:26;;;;;;;2.85;2.30;;;7.00;78.90;;;6.62;62.14;95247.59;5045375;28;20227;-82
2021/12/19 11:19:56;;;;;;;3.65;2.22;;;7.10;78.40;;;6.70;62.07;95242.41;5031963;28;20228;-82
2021/12/19 11:22:28;;;;;;;2.97;2.58;;;7.20;78.90;;;6.84;61.71;95238.34;5050366;28;20192;-84
2021/12/19 11:24:59;;;;;;;4.13;2.50;;;7.30;78.70;;;6.95;61.30;95239.84;5074051;28;20252;-81
2021/12/19 11:27:29;;;;;;;3.00;2.70;;;7.40;78.50;;;6.95;61.12;95234.63;5028113;28;20638;-82
2021/12/19 11:29:58;;;;;;;2.88;2.47;;;7.50;78.10;;;7.00;61.32;95242.75;5026664;28;20224;-83
2021/12/19 11:33:06;;;;;;;4.32;2.90;;;7.60;78.20;;;7.03;61.62;95239.84;5057297;28;20228;-81
2021/12/19 11:35:37;;;;;;;3.30;2.53;;;7.60;78.10;;;7.04;61.80;95228.44;5027695;28;20227;-83
2021/12/19 11:38:09;;;;;;;3.40;3.00;;;7.70;78.30;;;7.00;61.10;95221.91;5049802;28;20219;-82
2021/12/19 11:40:37;;;;;;;3.50;3.00;;;7.70;77.80;;;6.99;60.84;95222.06;5034587;28;20222;-83
2021/12/19 11:43:10;;;;;;;3.30;3.00;;;7.70;77.70;;;6.93;61.17;95227.94;5017819;28;20562;-81
2021/12/19 11:45:42;;;;;;;3.22;2.92;;;7.70;77.40;;;6.95;61.20;95226.00;5034071;28;20265;-82
2021/12/19 11:48:31;;;;;;;3.67;3.08;;;7.70;77.60;;;6.96;61.59;95228.44;5035161;28;20181;-82
2021/12/19 11:51:05;;;;;;;4.60;3.33;;;7.70;77.70;;;6.92;61.30;95219.31;5051615;28;20220;-82